createdAt,value
2022-09-28T00:01:26.013Z,6.50
2022-09-28T00:03:58.345Z,7.00
2022-09-28T00:06:30.434Z,9.00
2022-09-28T00:08:58.585Z,8.50
2022-09-28T00:11:28.361Z,4.00
2022-09-28T00:14:03.783Z,7.00
2022-09-28T00:16:37.974Z,4.50
2022-09-28T00:19:06.725Z,6.50
2022-09-28T00:21:39.243Z,6.00
2022-09-28T00:24:22.951Z,6.00
2022-09-28T00:26:56.883Z,5.00
2022-09-28T00:29:37.053Z,4.00
2022-09-28T00:32:13.447Z,5.00
2022-09-28T00:34:46.143Z,5.00
2022-09-28T00:37:15.290Z,3.50
2022-09-28T00:39:44.103Z,5.00
2022-09-28T00:42:21.266Z,5.00
2022-09-28T00:44:56.050Z,6.50
2022-09-28T00:47:51.044Z,6.00
2022-09-28T00:50:36.815Z,11.00
2022-09-28T00:53:18.518Z,10.00
2022-09-28T00:56:13.527Z,13.00
2022-09-28T00:58:48.433Z,14.33
2022-09-28T01:01:16.826Z,12.50
2022-09-28T01:03:48.125Z,10.00
2022-09-28T01:06:27.719Z,8.80
2022-09-28T01:09:05.075Z,4.50
2022-09-28T01:11:36.345Z,5.00
2022-09-28T01:14:13.589Z,7.29
2022-09-28T01:17:11.913Z,6.00
2022-09-28T01:20:05.697Z,5.00
2022-09-28T01:22:54.486Z,5.00
2022-09-28T01:25:52.519Z,4.00
2022-09-28T01:28:27.259Z,4.00
2022-09-28T01:31:27.196Z,4.00
2022-09-28T01:34:06.001Z,5.00
2022-09-28T01:36:56.853Z,4.00
2022-09-28T01:39:36.457Z,4.00
2022-09-28T01:42:21.714Z,4.00
2022-09-28T01:44:53.387Z,3.00
2022-09-28T01:47:24.527Z,4.00
2022-09-28T01:50:15.262Z,5.00
2022-09-28T01:53:11.213Z,5.00
2022-09-28T01:55:50.306Z,4.00
2022-09-28T01:59:04.078Z,4.00
2022-09-28T02:01:58.800Z,4.00
2022-09-28T02:04:51.621Z,5.00
2022-09-28T02:07:38.698Z,3.50
2022-09-28T02:10:23.362Z,3.50
2022-09-28T02:12:59.542Z,4.00
2022-09-28T02:16:10.041Z,4.50
2022-09-28T02:18:37.805Z,4.00
2022-09-28T02:21:17.581Z,3.00
2022-09-28T02:23:58.413Z,4.50
2022-09-28T02:26:38.094Z,3.00
2022-09-28T02:29:05.790Z,3.00
2022-09-28T02:31:33.542Z,3.50
2022-09-28T02:34:01.363Z,3.50
2022-09-28T02:36:30.626Z,2.00
2022-09-28T02:38:59.207Z,3.00
2022-09-28T02:42:03.298Z,4.00
2022-09-28T02:44:54.577Z,3.00
2022-09-28T02:48:08.849Z,3.00
2022-09-28T02:51:03.232Z,3.75
2022-09-28T02:53:57.312Z,5.00
2022-09-28T02:57:20.761Z,4.00
2022-09-28T03:00:20.445Z,6.00
2022-09-28T03:03:20.578Z,3.00
2022-09-28T03:06:30.796Z,4.00
2022-09-28T03:09:17.666Z,2.75
2022-09-28T03:11:59.498Z,2.00
2022-09-28T03:14:27.965Z,3.50
2022-09-28T03:16:56.482Z,1.25
2022-09-28T03:19:30.752Z,3.00
2022-09-28T03:21:59.288Z,2.50
2022-09-28T03:24:27.998Z,3.00
2022-09-28T03:26:55.692Z,2.00
2022-09-28T03:29:24.257Z,2.00
2022-09-28T03:31:51.880Z,3.00
2022-09-28T03:34:20.382Z,3.25
2022-09-28T03:36:48.011Z,2.50
2022-09-28T03:39:15.680Z,3.00
2022-09-28T03:41:43.475Z,6.00
2022-09-28T03:44:11.140Z,8.50
2022-09-28T03:46:38.791Z,5.50
2022-09-28T03:49:06.410Z,6.00
2022-09-28T03:51:34.048Z,6.00
2022-09-28T03:54:01.975Z,9.00
2022-09-28T03:56:31.488Z,7.20
2022-09-28T03:58:59.121Z,8.00
2022-09-28T04:01:26.963Z,7.00
2022-09-28T04:03:58.636Z,11.50
2022-09-28T04:06:26.863Z,5.00
2022-09-28T04:08:55.044Z,4.00
2022-09-28T04:11:22.677Z,1.00
2022-09-28T04:13:50.900Z,4.00
2022-09-28T04:16:19.130Z,5.00
2022-09-28T04:18:47.956Z,3.00
2022-09-28T04:21:19.543Z,4.00
2022-09-28T04:23:49.152Z,2.75
2022-09-28T04:26:28.546Z,5.00
2022-09-28T04:29:17.575Z,2.00
2022-09-28T04:31:55.853Z,4.00
2022-09-28T04:34:24.370Z,3.00
2022-09-28T04:36:52.016Z,3.00
2022-09-28T04:39:20.101Z,4.00
2022-09-28T04:41:49.489Z,4.00
2022-09-28T04:44:17.156Z,4.00
2022-09-28T04:46:44.778Z,4.00
2022-09-28T04:49:12.665Z,3.00
2022-09-28T04:51:40.327Z,5.00
2022-09-28T04:54:07.953Z,5.00
2022-09-28T04:56:35.589Z,6.00
2022-09-28T04:59:03.198Z,5.00
2022-09-28T05:01:31.369Z,5.00
2022-09-28T05:03:59.130Z,5.00
2022-09-28T05:06:30.643Z,5.00
2022-09-28T05:08:58.391Z,8.00
2022-09-28T05:11:26.012Z,6.00
2022-09-28T05:13:53.709Z,6.00
2022-09-28T05:16:25.278Z,9.80
2022-09-28T05:18:58.393Z,12.00
2022-09-28T05:21:29.388Z,10.40
2022-09-28T05:23:58.410Z,10.00
2022-09-28T05:26:26.915Z,14.33
2022-09-28T05:28:55.584Z,16.67
2022-09-28T05:31:23.324Z,13.00
2022-09-28T05:33:51.916Z,15.67
2022-09-28T05:36:19.982Z,13.50
2022-09-28T05:38:48.518Z,14.00
2022-09-28T05:41:17.064Z,13.67
2022-09-28T05:43:45.888Z,16.67
2022-09-28T05:46:13.638Z,18.00
2022-09-28T05:48:42.246Z,18.00
2022-09-28T05:51:10.468Z,17.00
2022-09-28T05:53:39.113Z,13.67
2022-09-28T05:56:07.714Z,11.00
2022-09-28T05:58:35.433Z,13.00
2022-09-28T06:01:04.212Z,12.67
2022-09-28T06:03:31.928Z,12.00
2022-09-28T06:06:03.379Z,11.00
2022-09-28T06:08:33.126Z,12.50
2022-09-28T06:11:02.393Z,13.00
2022-09-28T06:13:30.234Z,11.50
2022-09-28T06:15:58.875Z,16.67
2022-09-28T06:18:26.618Z,15.00
2022-09-28T06:20:54.327Z,15.50
2022-09-28T06:23:22.008Z,16.00
2022-09-28T06:25:49.695Z,16.50
2022-09-28T06:28:18.152Z,11.67
2022-09-28T06:30:48.288Z,18.33
2022-09-28T06:33:16.514Z,6.00
2022-09-28T06:35:44.232Z,5.00
2022-09-28T06:38:12.230Z,3.00
2022-09-28T06:40:40.207Z,5.00
2022-09-28T06:43:15.118Z,2.00
2022-09-28T06:45:44.219Z,2.00
2022-09-28T06:48:12.477Z,2.50
2022-09-28T06:50:43.734Z,2.00
2022-09-28T06:53:15.490Z,3.00
2022-09-28T06:55:49.207Z,2.00
2022-09-28T06:58:21.716Z,2.50
2022-09-28T07:00:52.720Z,2.00
2022-09-28T07:03:22.981Z,3.00
2022-09-28T07:05:54.541Z,3.00
2022-09-28T07:08:26.060Z,2.00
2022-09-28T07:10:58.422Z,3.00
2022-09-28T07:16:16.377Z,2.00
2022-09-28T07:18:44.038Z,2.00
2022-09-28T07:21:22.501Z,3.00
2022-09-28T07:23:54.330Z,2.00
2022-09-28T07:26:24.582Z,2.00
2022-09-28T07:28:53.929Z,2.00
2022-09-28T07:31:21.589Z,1.00
2022-09-28T07:33:51.848Z,8.00
2022-09-28T07:36:21.043Z,1.50
2022-09-28T07:38:48.694Z,1.00
2022-09-28T07:41:21.779Z,1.00
2022-09-28T07:43:49.993Z,2.00
2022-09-28T07:46:20.827Z,7.00
2022-09-28T07:48:51.832Z,9.00
2022-09-28T07:51:21.364Z,2.50
2022-09-28T07:53:48.977Z,2.00
2022-09-28T07:56:18.362Z,3.00
2022-09-28T07:58:48.725Z,2.00
2022-09-28T08:01:16.910Z,1.00
2022-09-28T08:03:48.693Z,2.00
2022-09-28T08:06:18.007Z,1.50
2022-09-28T08:08:46.046Z,0.00
2022-09-28T08:11:17.957Z,2.50
2022-09-28T08:13:46.700Z,0.00
2022-09-28T08:16:16.223Z,4.20
2022-09-28T08:18:43.941Z,1.00
2022-09-28T08:21:30.261Z,0.00
2022-09-28T08:23:57.926Z,1.00
2022-09-28T08:26:25.888Z,3.00
2022-09-28T08:28:53.555Z,2.00
2022-09-28T08:31:21.179Z,3.00
2022-09-28T08:33:54.483Z,2.00
2022-09-28T08:36:22.307Z,2.00
2022-09-28T08:38:50.724Z,1.00
2022-09-28T08:42:06.862Z,2.00
2022-09-28T08:44:57.365Z,2.00
2022-09-28T08:47:53.468Z,3.00
2022-09-28T08:50:32.315Z,3.00
2022-09-28T08:53:53.535Z,3.00
2022-09-28T08:56:47.701Z,2.50
2022-09-28T08:59:32.129Z,3.00
2022-09-28T09:02:03.982Z,2.00
2022-09-28T09:04:34.493Z,2.00
2022-09-28T09:07:43.421Z,3.50
2022-09-28T09:11:18.920Z,3.00
2022-09-28T09:14:03.254Z,3.00
2022-09-28T09:17:07.482Z,3.00
2022-09-28T09:19:55.323Z,4.50
2022-09-28T09:23:01.281Z,3.00
2022-09-28T09:25:41.178Z,8.00
2022-09-28T09:28:36.286Z,5.00
2022-09-28T09:31:26.747Z,1.00
2022-09-28T09:34:32.581Z,6.00
2022-09-28T09:37:27.946Z,4.00
2022-09-28T09:40:26.352Z,2.50
2022-09-28T09:43:21.320Z,3.00
2022-09-28T09:46:27.971Z,0.00
2022-09-28T09:49:27.329Z,1.50
2022-09-28T09:52:06.792Z,3.00
2022-09-28T09:55:02.775Z,3.00
2022-09-28T09:57:40.831Z,2.50
2022-09-28T10:00:15.521Z,1.00
2022-09-28T10:02:48.585Z,1.50
2022-09-28T10:05:27.808Z,1.33
2022-09-28T10:08:15.552Z,1.00
2022-09-28T10:11:19.454Z,1.00
2022-09-28T10:13:50.381Z,1.00
2022-09-28T10:16:20.010Z,0.00
2022-09-28T10:18:49.911Z,0.00
2022-09-28T10:21:21.795Z,1.00
2022-09-28T10:24:00.578Z,1.00
2022-09-28T10:26:40.228Z,0.00
2022-09-28T10:29:25.420Z,1.00
2022-09-28T10:31:54.824Z,0.00
2022-09-28T10:34:31.206Z,1.00
2022-09-28T10:37:10.192Z,0.67
2022-09-28T10:39:54.174Z,0.67
2022-09-28T10:42:32.847Z,1.00
2022-09-28T10:45:25.371Z,1.00
2022-09-28T10:47:53.052Z,1.00
2022-09-28T10:50:26.760Z,1.00
2022-09-28T10:52:54.906Z,0.00
2022-09-28T10:55:37.006Z,0.67
2022-09-28T10:58:33.152Z,8.40
2022-09-28T11:01:13.736Z,1.00
2022-09-28T11:03:58.886Z,1.00
2022-09-28T11:06:37.271Z,0.50
2022-09-28T11:09:30.862Z,1.00
2022-09-28T11:12:04.224Z,0.00
2022-09-28T11:14:42.451Z,0.33
2022-09-28T11:17:41.718Z,0.00
2022-09-28T11:20:27.799Z,0.67
2022-09-28T11:23:00.859Z,1.33
2022-09-28T11:25:31.453Z,2.00
2022-09-28T11:28:05.734Z,0.00
2022-09-28T11:30:44.625Z,0.00
2022-09-28T11:33:33.876Z,1.00
2022-09-28T11:36:13.444Z,2.00
2022-09-28T11:39:06.388Z,0.00
2022-09-28T11:42:01.692Z,0.00
2022-09-28T11:44:48.953Z,1.00
2022-09-28T11:47:57.703Z,0.67
2022-09-28T11:50:47.878Z,0.67
2022-09-28T11:53:31.716Z,0.00
2022-09-28T11:56:36.569Z,0.00
2022-09-28T11:59:15.026Z,0.00
2022-09-28T12:02:25.744Z,0.00
2022-09-28T12:05:03.104Z,0.00
2022-09-28T12:07:55.061Z,0.00
2022-09-28T12:11:09.973Z,0.00
2022-09-28T12:13:48.314Z,0.00
2022-09-28T12:17:07.328Z,0.00
2022-09-28T12:20:20.162Z,0.00
2022-09-28T12:23:07.496Z,0.00
2022-09-28T12:25:46.987Z,0.00
2022-09-28T12:28:40.227Z,0.00
2022-09-28T12:31:39.226Z,0.00
2022-09-28T12:34:10.447Z,0.00
2022-09-28T12:37:33.338Z,0.00
2022-09-28T12:40:42.280Z,0.00
2022-09-28T12:43:54.659Z,0.00
2022-09-28T12:47:06.168Z,0.00
2022-09-28T12:53:16.501Z,0.00
2022-09-28T12:56:01.143Z,0.00
2022-09-28T12:59:08.374Z,0.00
2022-09-28T13:02:19.696Z,0.00
2022-09-28T13:05:36.589Z,0.00
2022-09-28T13:08:31.134Z,0.00
2022-09-28T13:12:09.900Z,0.00
2022-09-28T13:15:08.760Z,0.00
2022-09-28T13:18:03.898Z,0.00
2022-09-28T13:21:26.374Z,0.33
2022-09-28T13:24:14.361Z,0.00
2022-09-28T13:26:48.809Z,0.00
2022-09-28T13:29:20.398Z,0.67
2022-09-28T13:31:57.776Z,0.00
2022-09-28T13:34:33.014Z,0.00
2022-09-28T13:37:21.981Z,0.00
2022-09-28T13:40:06.226Z,0.00
2022-09-28T13:43:09.864Z,0.00
2022-09-28T13:45:54.066Z,0.00
2022-09-28T13:49:13.274Z,0.00
2022-09-28T13:52:06.287Z,0.00
2022-09-28T13:55:17.284Z,0.00
2022-09-28T13:57:58.193Z,0.00
2022-09-28T14:00:46.533Z,0.00
2022-09-28T14:03:28.897Z,0.00
2022-09-28T14:06:33.775Z,0.00
2022-09-28T14:09:16.067Z,0.00
2022-09-28T14:11:53.934Z,0.00
2022-09-28T14:14:30.072Z,0.00
2022-09-28T14:17:27.351Z,0.00
2022-09-28T14:20:11.419Z,0.00
2022-09-28T14:23:37.837Z,0.00
2022-09-28T14:27:27.940Z,0.00
2022-09-28T14:30:11.585Z,0.00
2022-09-28T14:32:50.708Z,1.00
2022-09-28T14:35:42.058Z,1.00
2022-09-28T14:38:49.736Z,0.00
2022-09-28T14:41:18.172Z,0.00
2022-09-28T14:43:45.770Z,0.00
2022-09-28T14:46:17.376Z,0.00
2022-09-28T14:48:54.572Z,0.00
2022-09-28T14:51:33.073Z,0.00
2022-09-28T14:54:22.378Z,0.00
2022-09-28T14:56:52.685Z,0.00
2022-09-28T14:59:36.292Z,2.00
2022-09-28T15:02:22.954Z,4.00
2022-09-28T15:05:14.118Z,5.00
2022-09-28T15:07:52.290Z,2.00
2022-09-28T15:10:49.654Z,6.00
2022-09-28T15:13:28.790Z,1.00
2022-09-28T15:16:11.614Z,0.00
2022-09-28T15:19:22.928Z,1.00
2022-09-28T15:21:51.409Z,1.00
2022-09-28T15:24:35.599Z,1.00
2022-09-28T15:27:16.878Z,1.00
2022-09-28T15:29:59.838Z,4.00
2022-09-28T15:32:31.810Z,3.00
2022-09-28T15:35:20.679Z,3.00
2022-09-28T15:37:52.210Z,2.00
2022-09-28T15:40:51.092Z,2.00
2022-09-28T15:43:34.704Z,0.00
2022-09-28T15:46:13.847Z,8.50
2022-09-28T15:48:59.548Z,1.00
2022-09-28T15:51:28.773Z,3.00
2022-09-28T15:54:21.719Z,2.50
2022-09-28T15:57:02.051Z,15.00
2022-09-28T15:59:37.127Z,5.00
2022-09-28T16:02:19.543Z,2.00
2022-09-28T16:04:58.950Z,2.00
2022-09-28T16:07:41.769Z,1.00
2022-09-28T16:10:12.295Z,1.00
2022-09-28T16:12:48.699Z,0.00
2022-09-28T16:15:31.680Z,0.00
2022-09-28T16:18:18.344Z,1.00
2022-09-28T16:20:56.441Z,1.00
2022-09-28T16:23:34.165Z,2.00
2022-09-28T16:26:07.952Z,1.00
2022-09-28T16:28:42.589Z,1.00
2022-09-28T16:31:17.245Z,8.80
2022-09-28T16:34:02.415Z,31.00
2022-09-28T16:36:45.404Z,19.00
2022-09-28T16:39:17.561Z,32.67
2022-09-28T16:42:03.248Z,41.67
2022-09-28T16:44:36.539Z,26.67
2022-09-28T16:47:05.139Z,22.00
2022-09-28T16:49:34.063Z,12.00
2022-09-28T16:52:03.428Z,25.00
2022-09-28T16:54:51.181Z,10.00
2022-09-28T16:57:18.842Z,3.00
2022-09-28T16:59:47.324Z,1.00
2022-09-28T17:02:46.725Z,2.50
2022-09-28T17:05:19.446Z,5.00
2022-09-28T17:08:05.068Z,14.00
2022-09-28T17:11:12.601Z,26.00
2022-09-28T17:13:35.265Z,18.00
2022-09-28T17:16:11.458Z,23.00
2022-09-28T17:18:40.670Z,13.00
2022-09-28T17:21:20.732Z,9.20
2022-09-28T17:23:50.627Z,4.50
2022-09-28T17:26:34.692Z,3.00
2022-09-28T17:29:03.080Z,3.00
2022-09-28T17:31:31.218Z,3.00
2022-09-28T17:33:58.981Z,2.00
2022-09-28T17:36:27.122Z,3.00
2022-09-28T17:38:54.740Z,3.00
2022-09-28T17:41:22.414Z,4.00
2022-09-28T17:43:50.066Z,3.50
2022-09-28T17:46:33.665Z,3.00
2022-09-28T17:49:05.022Z,4.00
2022-09-28T17:51:39.636Z,6.00
2022-09-28T17:54:11.241Z,7.00
2022-09-28T17:56:42.738Z,8.00
2022-09-28T17:59:17.799Z,7.86
2022-09-28T18:01:48.425Z,8.20
2022-09-28T18:04:39.633Z,9.67
2022-09-28T18:07:05.314Z,5.00
2022-09-28T18:09:32.938Z,5.00
2022-09-28T18:12:05.404Z,7.00
2022-09-28T18:14:33.104Z,8.00
2022-09-28T18:17:00.771Z,8.00
2022-09-28T18:19:31.973Z,4.50
2022-09-28T18:22:01.491Z,4.00
2022-09-28T18:24:29.742Z,4.00
2022-09-28T18:26:57.372Z,3.50
2022-09-28T18:29:31.014Z,10.00
2022-09-28T18:32:02.607Z,16.33
2022-09-28T18:34:31.270Z,51.00
2022-09-28T18:36:58.941Z,15.00
2022-09-28T18:39:26.830Z,6.00
2022-09-28T18:41:54.622Z,3.00
2022-09-28T18:44:22.572Z,2.00
2022-09-28T18:46:51.727Z,2.00
2022-09-28T18:49:19.510Z,4.00
2022-09-28T18:51:47.659Z,4.50
2022-09-28T18:54:17.234Z,6.00
2022-09-28T18:56:44.871Z,6.00
2022-09-28T18:59:12.673Z,3.50
2022-09-28T19:01:42.937Z,3.00
2022-09-28T19:04:12.078Z,6.50
2022-09-28T19:06:42.928Z,5.00
2022-09-28T19:09:11.228Z,8.00
2022-09-28T19:11:42.412Z,7.14
2022-09-28T19:14:15.751Z,6.50
2022-09-28T19:16:45.606Z,4.00
2022-09-28T19:19:20.161Z,10.40
2022-09-28T19:21:50.263Z,67.33
2022-09-28T19:24:19.961Z,13.50
2022-09-28T19:26:49.670Z,11.67
2022-09-28T19:29:20.662Z,169.33
2022-09-28T19:31:52.005Z,150.33
2022-09-28T19:34:24.460Z,105.00
2022-09-28T19:36:53.106Z,13.67
2022-09-28T19:39:21.664Z,31.00
2022-09-28T19:41:54.431Z,28.67
2022-09-28T19:44:27.367Z,11.00
2022-09-28T19:47:07.606Z,26.00
2022-09-28T19:49:40.437Z,18.67
2022-09-28T19:52:17.478Z,23.00
2022-09-28T19:54:56.941Z,12.00
2022-09-28T19:57:29.341Z,9.33
2022-09-28T20:00:03.108Z,39.67
2022-09-28T20:02:34.986Z,46.00
2022-09-28T20:05:04.352Z,3.25
2022-09-28T20:07:36.252Z,112.50
2022-09-28T20:10:06.530Z,42.00
2022-09-28T20:12:35.285Z,25.00
2022-09-28T20:15:05.413Z,34.33
2022-09-28T20:17:36.042Z,28.00
2022-09-28T20:20:05.937Z,26.33
2022-09-28T20:22:35.408Z,27.67
2022-09-28T20:25:04.298Z,34.00
2022-09-28T20:27:32.943Z,35.33
2022-09-28T20:30:01.724Z,45.50
2022-09-28T20:32:35.422Z,40.00
2022-09-28T20:35:04.470Z,43.00
2022-09-28T20:37:34.222Z,46.00
2022-09-28T20:40:03.013Z,40.00
2022-09-28T20:42:32.840Z,27.33
2022-09-28T20:45:01.592Z,34.67
2022-09-28T20:47:30.218Z,33.00
2022-09-28T20:49:59.608Z,22.67
2022-09-28T20:52:28.215Z,27.00
2022-09-28T20:54:56.760Z,15.00
2022-09-28T20:57:25.364Z,17.33
2022-09-28T20:59:55.037Z,12.00
2022-09-28T21:02:22.998Z,12.00
2022-09-28T21:04:50.766Z,12.00
2022-09-28T21:07:20.311Z,10.00
2022-09-28T21:09:50.624Z,8.00
2022-09-28T21:12:19.359Z,10.00
2022-09-28T21:14:47.062Z,11.00
2022-09-28T21:17:16.553Z,11.00
2022-09-28T21:19:44.204Z,8.00
2022-09-28T21:22:13.760Z,10.60
2022-09-28T21:24:41.512Z,9.00
2022-09-28T21:27:09.209Z,20.00
2022-09-28T21:29:38.597Z,25.00
2022-09-28T21:32:08.315Z,19.00
2022-09-28T21:34:36.962Z,23.50
2022-09-28T21:37:05.516Z,25.00
2022-09-28T21:39:34.245Z,23.50
2022-09-28T21:42:03.750Z,24.00
2022-09-28T21:44:31.404Z,18.00
2022-09-28T21:46:59.949Z,13.67
2022-09-28T21:49:29.528Z,13.60
2022-09-28T21:51:58.009Z,13.33
2022-09-28T21:54:26.522Z,14.67
2022-09-28T21:56:54.188Z,14.00
2022-09-28T21:59:21.902Z,14.00
2022-09-28T22:01:50.475Z,13.00
2022-09-28T22:04:20.483Z,14.67
2022-09-28T22:06:49.404Z,11.33
2022-09-28T22:09:17.957Z,15.67
2022-09-28T22:11:45.687Z,11.00
2022-09-28T22:14:14.268Z,14.00
2022-09-28T22:16:42.071Z,14.00
2022-09-28T22:19:10.589Z,10.67
2022-09-28T22:21:39.165Z,13.67
2022-09-28T22:24:09.647Z,16.00
2022-09-28T22:26:39.600Z,14.67
2022-09-28T22:29:10.576Z,13.33
2022-09-28T22:31:41.594Z,12.00
2022-09-28T22:34:10.144Z,14.50
2022-09-28T22:36:38.600Z,14.33
2022-09-28T22:39:06.497Z,14.50
2022-09-28T22:41:34.325Z,15.00
2022-09-28T22:44:02.867Z,14.67
2022-09-28T22:46:33.735Z,14.00
2022-09-28T22:49:02.480Z,15.67
2022-09-28T22:51:33.093Z,13.00
2022-09-28T22:54:01.320Z,14.00
2022-09-28T22:56:30.358Z,10.67
2022-09-28T22:58:59.370Z,15.00
2022-09-28T23:01:30.765Z,14.40
2022-09-28T23:03:59.740Z,16.67
2022-09-28T23:06:30.950Z,14.00
2022-09-28T23:09:01.044Z,13.20
2022-09-28T23:11:30.328Z,17.67
2022-09-28T23:13:59.820Z,13.00
2022-09-28T23:16:28.009Z,15.00
2022-09-28T23:18:57.298Z,24.00
2022-09-28T23:21:28.220Z,21.00
2022-09-28T23:24:01.714Z,25.00
2022-09-28T23:26:34.486Z,26.67
2022-09-28T23:29:04.321Z,27.33
2022-09-28T23:31:34.173Z,27.00
2022-09-28T23:34:06.115Z,16.00
2022-09-28T23:36:34.996Z,12.00
2022-09-28T23:39:04.876Z,15.00
2022-09-28T23:41:33.381Z,13.00
2022-09-28T23:44:02.141Z,12.67
2022-09-28T23:46:30.089Z,14.00
2022-09-28T23:48:58.549Z,12.00
2022-09-28T23:51:26.300Z,14.00
2022-09-28T23:53:54.034Z,13.50
2022-09-28T23:56:22.620Z,14.00
2022-09-28T23:58:50.440Z,14.00
